sensor_id;sensor_type;location;lat;lon;timestamp;P1;durP1;ratioP1;P2;durP2;ratioP2
24357;SDS011;13668;52.154;5.580;2023-08-30T00:02:07;5.30;;;4.45;;
24357;SDS011;13668;52.154;5.580;2023-08-30T00:04:33;6.60;;;4.75;;
24357;SDS011;13668;52.154;5.580;2023-08-30T00:06:59;7.00;;;4.78;;
24357;SDS011;13668;52.154;5.580;2023-08-30T00:09:25;5.38;;;4.30;;
24357;SDS011;13668;52.154;5.580;2023-08-30T00:11:51;8.07;;;4.88;;
24357;SDS011;13668;52.154;5.580;2023-08-30T00:14:17;8.25;;;4.80;;
24357;SDS011;13668;52.154;5.580;2023-08-30T00:16:43;7.30;;;5.00;;
24357;SDS011;13668;52.154;5.580;2023-08-30T00:19:09;5.32;;;4.82;;
24357;SDS011;13668;52.154;5.580;2023-08-30T00:21:35;5.72;;;4.30;;
24357;SDS011;13668;52.154;5.580;2023-08-30T00:24:01;4.85;;;3.83;;
24357;SDS011;13668;52.154;5.580;2023-08-30T00:26:27;6.18;;;4.72;;
24357;SDS011;13668;52.154;5.580;2023-08-30T00:28:53;6.90;;;4.90;;
24357;SDS011;13668;52.154;5.580;2023-08-30T00:31:19;7.25;;;4.55;;
24357;SDS011;13668;52.154;5.580;2023-08-30T00:33:45;6.38;;;4.10;;
24357;SDS011;13668;52.154;5.580;2023-08-30T00:36:11;6.00;;;4.05;;
24357;SDS011;13668;52.154;5.580;2023-08-30T00:38:37;5.78;;;3.92;;
24357;SDS011;13668;52.154;5.580;2023-08-30T00:41:03;6.53;;;4.75;;
24357;SDS011;13668;52.154;5.580;2023-08-30T00:43:29;5.80;;;4.18;;
24357;SDS011;13668;52.154;5.580;2023-08-30T00:45:55;5.18;;;4.07;;
24357;SDS011;13668;52.154;5.580;2023-08-30T00:48:22;6.95;;;4.50;;
24357;SDS011;13668;52.154;5.580;2023-08-30T00:50:48;7.05;;;4.03;;
24357;SDS011;13668;52.154;5.580;2023-08-30T00:53:14;5.97;;;4.07;;
24357;SDS011;13668;52.154;5.580;2023-08-30T00:55:41;7.32;;;4.90;;
24357;SDS011;13668;52.154;5.580;2023-08-30T00:58:08;5.88;;;4.22;;
24357;SDS011;13668;52.154;5.580;2023-08-30T01:00:35;5.43;;;4.28;;
24357;SDS011;13668;52.154;5.580;2023-08-30T01:03:01;7.20;;;4.95;;
24357;SDS011;13668;52.154;5.580;2023-08-30T01:05:27;5.72;;;4.22;;
24357;SDS011;13668;52.154;5.580;2023-08-30T01:07:53;6.05;;;4.45;;
24357;SDS011;13668;52.154;5.580;2023-08-30T01:10:28;5.88;;;3.88;;
24357;SDS011;13668;52.154;5.580;2023-08-30T01:13:02;6.50;;;4.50;;
24357;SDS011;13668;52.154;5.580;2023-08-30T01:15:29;6.30;;;4.22;;
24357;SDS011;13668;52.154;5.580;2023-08-30T01:17:55;8.68;;;4.93;;
24357;SDS011;13668;52.154;5.580;2023-08-30T01:20:22;6.32;;;4.28;;
24357;SDS011;13668;52.154;5.580;2023-08-30T01:23:03;6.38;;;4.07;;
24357;SDS011;13668;52.154;5.580;2023-08-30T01:27:57;8.32;;;4.65;;
24357;SDS011;13668;52.154;5.580;2023-08-30T01:30:24;6.93;;;4.38;;
24357;SDS011;13668;52.154;5.580;2023-08-30T01:32:52;5.65;;;4.97;;
24357;SDS011;13668;52.154;5.580;2023-08-30T01:35:18;5.88;;;4.50;;
24357;SDS011;13668;52.154;5.580;2023-08-30T01:37:45;6.78;;;4.55;;
24357;SDS011;13668;52.154;5.580;2023-08-30T01:40:12;6.15;;;4.75;;
24357;SDS011;13668;52.154;5.580;2023-08-30T01:42:39;6.47;;;4.68;;
24357;SDS011;13668;52.154;5.580;2023-08-30T01:45:06;6.97;;;4.93;;
24357;SDS011;13668;52.154;5.580;2023-08-30T01:47:33;7.75;;;4.22;;
24357;SDS011;13668;52.154;5.580;2023-08-30T01:50:01;5.63;;;4.03;;
24357;SDS011;13668;52.154;5.580;2023-08-30T01:52:29;6.80;;;4.95;;
24357;SDS011;13668;52.154;5.580;2023-08-30T01:54:55;9.00;;;4.78;;
24357;SDS011;13668;52.154;5.580;2023-08-30T01:57:22;6.45;;;5.28;;
24357;SDS011;13668;52.154;5.580;2023-08-30T01:59:48;7.15;;;5.22;;
24357;SDS011;13668;52.154;5.580;2023-08-30T02:02:15;5.30;;;4.80;;
24357;SDS011;13668;52.154;5.580;2023-08-30T02:04:41;7.53;;;4.63;;
24357;SDS011;13668;52.154;5.580;2023-08-30T02:07:08;6.93;;;4.88;;
24357;SDS011;13668;52.154;5.580;2023-08-30T02:09:40;7.00;;;4.75;;
24357;SDS011;13668;52.154;5.580;2023-08-30T02:12:10;5.82;;;4.80;;
24357;SDS011;13668;52.154;5.580;2023-08-30T02:14:39;8.90;;;5.72;;
24357;SDS011;13668;52.154;5.580;2023-08-30T02:17:06;10.50;;;5.28;;
24357;SDS011;13668;52.154;5.580;2023-08-30T02:19:33;6.97;;;4.80;;
24357;SDS011;13668;52.154;5.580;2023-08-30T02:21:59;10.38;;;5.07;;
24357;SDS011;13668;52.154;5.580;2023-08-30T02:24:25;7.35;;;4.53;;
24357;SDS011;13668;52.154;5.580;2023-08-30T02:26:51;9.70;;;4.97;;
24357;SDS011;13668;52.154;5.580;2023-08-30T02:29:17;6.97;;;5.35;;
24357;SDS011;13668;52.154;5.580;2023-08-30T02:31:43;7.10;;;4.80;;
24357;SDS011;13668;52.154;5.580;2023-08-30T02:34:09;7.93;;;5.57;;
24357;SDS011;13668;52.154;5.580;2023-08-30T02:36:35;8.25;;;5.65;;
24357;SDS011;13668;52.154;5.580;2023-08-30T02:39:01;9.13;;;5.57;;
24357;SDS011;13668;52.154;5.580;2023-08-30T02:41:28;7.82;;;5.53;;
24357;SDS011;13668;52.154;5.580;2023-08-30T02:43:54;7.43;;;5.28;;
24357;SDS011;13668;52.154;5.580;2023-08-30T02:46:20;8.57;;;5.88;;
24357;SDS011;13668;52.154;5.580;2023-08-30T02:48:46;8.40;;;5.18;;
24357;SDS011;13668;52.154;5.580;2023-08-30T02:51:12;8.32;;;5.93;;
24357;SDS011;13668;52.154;5.580;2023-08-30T02:53:38;7.18;;;4.93;;
24357;SDS011;13668;52.154;5.580;2023-08-30T02:56:04;8.57;;;5.55;;
24357;SDS011;13668;52.154;5.580;2023-08-30T02:58:30;5.68;;;4.95;;
24357;SDS011;13668;52.154;5.580;2023-08-30T03:00:56;7.45;;;5.38;;
24357;SDS011;13668;52.154;5.580;2023-08-30T03:03:22;9.43;;;5.68;;
24357;SDS011;13668;52.154;5.580;2023-08-30T03:05:48;9.45;;;5.78;;
24357;SDS011;13668;52.154;5.580;2023-08-30T03:08:14;9.02;;;6.13;;
24357;SDS011;13668;52.154;5.580;2023-08-30T03:10:39;8.27;;;5.10;;
24357;SDS011;13668;52.154;5.580;2023-08-30T03:13:06;10.77;;;5.97;;
24357;SDS011;13668;52.154;5.580;2023-08-30T03:15:33;8.85;;;5.45;;
24357;SDS011;13668;52.154;5.580;2023-08-30T03:17:59;7.68;;;5.70;;
24357;SDS011;13668;52.154;5.580;2023-08-30T03:20:25;10.40;;;6.05;;
24357;SDS011;13668;52.154;5.580;2023-08-30T03:22:53;12.48;;;6.03;;
24357;SDS011;13668;52.154;5.580;2023-08-30T03:25:19;7.63;;;5.85;;
24357;SDS011;13668;52.154;5.580;2023-08-30T03:27:45;7.00;;;5.45;;
24357;SDS011;13668;52.154;5.580;2023-08-30T03:30:11;9.15;;;6.05;;
24357;SDS011;13668;52.154;5.580;2023-08-30T03:32:37;9.00;;;6.03;;
24357;SDS011;13668;52.154;5.580;2023-08-30T03:35:03;10.32;;;6.72;;
24357;SDS011;13668;52.154;5.580;2023-08-30T03:37:30;10.23;;;6.82;;
24357;SDS011;13668;52.154;5.580;2023-08-30T03:39:55;9.18;;;6.25;;
24357;SDS011;13668;52.154;5.580;2023-08-30T03:42:21;10.90;;;6.47;;
24357;SDS011;13668;52.154;5.580;2023-08-30T03:44:47;9.52;;;5.95;;
24357;SDS011;13668;52.154;5.580;2023-08-30T03:47:13;11.10;;;6.10;;
24357;SDS011;13668;52.154;5.580;2023-08-30T03:49:39;10.80;;;6.65;;
24357;SDS011;13668;52.154;5.580;2023-08-30T03:52:05;10.88;;;6.68;;
24357;SDS011;13668;52.154;5.580;2023-08-30T03:54:31;10.00;;;6.70;;
24357;SDS011;13668;52.154;5.580;2023-08-30T03:56:57;9.27;;;6.18;;
24357;SDS011;13668;52.154;5.580;2023-08-30T03:59:23;12.82;;;6.72;;
24357;SDS011;13668;52.154;5.580;2023-08-30T04:01:52;11.73;;;6.68;;
24357;SDS011;13668;52.154;5.580;2023-08-30T04:04:18;9.82;;;6.15;;
24357;SDS011;13668;52.154;5.580;2023-08-30T04:06:44;9.55;;;5.95;;
24357;SDS011;13668;52.154;5.580;2023-08-30T04:09:10;8.75;;;5.70;;
24357;SDS011;13668;52.154;5.580;2023-08-30T04:11:36;11.13;;;5.60;;
24357;SDS011;13668;52.154;5.580;2023-08-30T04:14:02;10.32;;;6.25;;
24357;SDS011;13668;52.154;5.580;2023-08-30T04:16:28;10.80;;;5.88;;
24357;SDS011;13668;52.154;5.580;2023-08-30T04:18:54;13.93;;;6.68;;
24357;SDS011;13668;52.154;5.580;2023-08-30T04:21:20;10.30;;;6.65;;
24357;SDS011;13668;52.154;5.580;2023-08-30T04:23:46;13.65;;;6.65;;
24357;SDS011;13668;52.154;5.580;2023-08-30T04:26:12;9.52;;;6.30;;
24357;SDS011;13668;52.154;5.580;2023-08-30T04:28:38;8.70;;;5.85;;
24357;SDS011;13668;52.154;5.580;2023-08-30T04:31:04;9.57;;;5.95;;
24357;SDS011;13668;52.154;5.580;2023-08-30T04:33:30;11.98;;;6.60;;
24357;SDS011;13668;52.154;5.580;2023-08-30T04:35:56;10.52;;;6.13;;
24357;SDS011;13668;52.154;5.580;2023-08-30T04:38:22;9.63;;;5.20;;
24357;SDS011;13668;52.154;5.580;2023-08-30T04:40:48;10.93;;;6.53;;
24357;SDS011;13668;52.154;5.580;2023-08-30T04:43:14;10.57;;;6.28;;
24357;SDS011;13668;52.154;5.580;2023-08-30T04:45:40;9.90;;;5.97;;
24357;SDS011;13668;52.154;5.580;2023-08-30T04:48:06;9.98;;;5.75;;
24357;SDS011;13668;52.154;5.580;2023-08-30T04:50:32;10.63;;;6.20;;
24357;SDS011;13668;52.154;5.580;2023-08-30T04:52:58;11.18;;;6.55;;
24357;SDS011;13668;52.154;5.580;2023-08-30T04:55:24;9.88;;;6.32;;
24357;SDS011;13668;52.154;5.580;2023-08-30T04:57:50;9.95;;;5.65;;
24357;SDS011;13668;52.154;5.580;2023-08-30T05:00:17;11.10;;;6.78;;
24357;SDS011;13668;52.154;5.580;2023-08-30T05:02:44;9.00;;;5.32;;
24357;SDS011;13668;52.154;5.580;2023-08-30T05:05:11;10.82;;;6.20;;
24357;SDS011;13668;52.154;5.580;2023-08-30T05:07:37;9.82;;;6.50;;
24357;SDS011;13668;52.154;5.580;2023-08-30T05:10:04;7.45;;;5.00;;
24357;SDS011;13668;52.154;5.580;2023-08-30T05:12:30;9.10;;;6.22;;
24357;SDS011;13668;52.154;5.580;2023-08-30T05:14:56;8.52;;;5.10;;
24357;SDS011;13668;52.154;5.580;2023-08-30T05:17:22;9.18;;;5.32;;
24357;SDS011;13668;52.154;5.580;2023-08-30T05:19:48;8.65;;;5.97;;
24357;SDS011;13668;52.154;5.580;2023-08-30T05:22:14;11.93;;;6.10;;
24357;SDS011;13668;52.154;5.580;2023-08-30T05:24:40;7.53;;;5.50;;
24357;SDS011;13668;52.154;5.580;2023-08-30T05:27:06;8.95;;;5.93;;
24357;SDS011;13668;52.154;5.580;2023-08-30T05:29:32;10.30;;;6.05;;
24357;SDS011;13668;52.154;5.580;2023-08-30T05:31:58;7.15;;;5.18;;
24357;SDS011;13668;52.154;5.580;2023-08-30T05:34:24;12.77;;;6.88;;
24357;SDS011;13668;52.154;5.580;2023-08-30T05:36:52;9.00;;;6.25;;
24357;SDS011;13668;52.154;5.580;2023-08-30T05:39:18;10.82;;;6.70;;
24357;SDS011;13668;52.154;5.580;2023-08-30T05:41:44;10.32;;;6.15;;
24357;SDS011;13668;52.154;5.580;2023-08-30T05:44:10;8.45;;;5.65;;
24357;SDS011;13668;52.154;5.580;2023-08-30T05:46:36;9.35;;;5.22;;
24357;SDS011;13668;52.154;5.580;2023-08-30T05:49:02;11.02;;;6.30;;
24357;SDS011;13668;52.154;5.580;2023-08-30T05:51:28;9.27;;;6.05;;
24357;SDS011;13668;52.154;5.580;2023-08-30T05:53:54;10.55;;;5.93;;
24357;SDS011;13668;52.154;5.580;2023-08-30T05:56:20;9.43;;;5.88;;
24357;SDS011;13668;52.154;5.580;2023-08-30T05:58:46;7.68;;;5.80;;
24357;SDS011;13668;52.154;5.580;2023-08-30T06:01:13;9.00;;;5.93;;
24357;SDS011;13668;52.154;5.580;2023-08-30T06:03:39;10.30;;;6.40;;
24357;SDS011;13668;52.154;5.580;2023-08-30T06:06:05;10.07;;;6.13;;
24357;SDS011;13668;52.154;5.580;2023-08-30T06:08:32;10.75;;;6.32;;
24357;SDS011;13668;52.154;5.580;2023-08-30T06:10:58;12.63;;;6.80;;
24357;SDS011;13668;52.154;5.580;2023-08-30T06:13:24;8.68;;;6.10;;
24357;SDS011;13668;52.154;5.580;2023-08-30T06:15:50;10.30;;;5.78;;
24357;SDS011;13668;52.154;5.580;2023-08-30T06:18:19;11.13;;;6.78;;
24357;SDS011;13668;52.154;5.580;2023-08-30T06:20:45;9.80;;;6.28;;
24357;SDS011;13668;52.154;5.580;2023-08-30T06:23:13;7.30;;;5.38;;
24357;SDS011;13668;52.154;5.580;2023-08-30T06:25:39;9.27;;;6.13;;
24357;SDS011;13668;52.154;5.580;2023-08-30T06:28:05;11.38;;;5.93;;
24357;SDS011;13668;52.154;5.580;2023-08-30T06:30:31;9.95;;;5.55;;
24357;SDS011;13668;52.154;5.580;2023-08-30T06:32:57;10.43;;;6.22;;
24357;SDS011;13668;52.154;5.580;2023-08-30T06:35:23;10.60;;;6.88;;
24357;SDS011;13668;52.154;5.580;2023-08-30T06:37:49;13.73;;;5.80;;
24357;SDS011;13668;52.154;5.580;2023-08-30T06:40:15;9.40;;;6.13;;
24357;SDS011;13668;52.154;5.580;2023-08-30T06:42:41;10.18;;;6.05;;
24357;SDS011;13668;52.154;5.580;2023-08-30T06:45:07;8.38;;;5.82;;
24357;SDS011;13668;52.154;5.580;2023-08-30T06:47:34;9.38;;;6.13;;
24357;SDS011;13668;52.154;5.580;2023-08-30T06:50:00;9.70;;;5.93;;
24357;SDS011;13668;52.154;5.580;2023-08-30T06:52:26;8.77;;;5.93;;
24357;SDS011;13668;52.154;5.580;2023-08-30T06:54:52;10.80;;;6.47;;
24357;SDS011;13668;52.154;5.580;2023-08-30T06:57:19;10.07;;;5.93;;
24357;SDS011;13668;52.154;5.580;2023-08-30T06:59:46;8.95;;;6.18;;
24357;SDS011;13668;52.154;5.580;2023-08-30T07:02:12;10.25;;;6.20;;
24357;SDS011;13668;52.154;5.580;2023-08-30T07:04:39;9.18;;;6.13;;
24357;SDS011;13668;52.154;5.580;2023-08-30T07:07:05;8.20;;;5.38;;
24357;SDS011;13668;52.154;5.580;2023-08-30T07:09:31;9.38;;;5.95;;
24357;SDS011;13668;52.154;5.580;2023-08-30T07:11:58;9.85;;;7.00;;
24357;SDS011;13668;52.154;5.580;2023-08-30T07:14:24;12.75;;;6.93;;
24357;SDS011;13668;52.154;5.580;2023-08-30T07:16:51;10.30;;;5.85;;
24357;SDS011;13668;52.154;5.580;2023-08-30T07:19:17;8.75;;;5.60;;
24357;SDS011;13668;52.154;5.580;2023-08-30T07:21:43;12.18;;;5.82;;
24357;SDS011;13668;52.154;5.580;2023-08-30T07:24:09;11.07;;;5.93;;
24357;SDS011;13668;52.154;5.580;2023-08-30T07:26:35;8.82;;;5.82;;
24357;SDS011;13668;52.154;5.580;2023-08-30T07:29:02;9.15;;;5.93;;
24357;SDS011;13668;52.154;5.580;2023-08-30T07:31:29;8.30;;;5.50;;
24357;SDS011;13668;52.154;5.580;2023-08-30T07:33:55;10.82;;;6.18;;
24357;SDS011;13668;52.154;5.580;2023-08-30T07:36:23;11.02;;;5.75;;
24357;SDS011;13668;52.154;5.580;2023-08-30T07:38:49;7.53;;;6.07;;
24357;SDS011;13668;52.154;5.580;2023-08-30T07:41:15;10.73;;;5.78;;
24357;SDS011;13668;52.154;5.580;2023-08-30T07:43:41;11.32;;;6.05;;
24357;SDS011;13668;52.154;5.580;2023-08-30T07:46:07;10.05;;;7.10;;
24357;SDS011;13668;52.154;5.580;2023-08-30T07:48:33;10.63;;;6.95;;
24357;SDS011;13668;52.154;5.580;2023-08-30T07:50:59;9.35;;;5.90;;
24357;SDS011;13668;52.154;5.580;2023-08-30T07:53:25;8.77;;;5.35;;
24357;SDS011;13668;52.154;5.580;2023-08-30T07:55:51;10.80;;;5.53;;
24357;SDS011;13668;52.154;5.580;2023-08-30T07:58:17;9.68;;;5.57;;
24357;SDS011;13668;52.154;5.580;2023-08-30T08:00:43;8.60;;;5.55;;
24357;SDS011;13668;52.154;5.580;2023-08-30T08:03:09;9.55;;;5.95;;
24357;SDS011;13668;52.154;5.580;2023-08-30T08:05:35;10.75;;;7.00;;
24357;SDS011;13668;52.154;5.580;2023-08-30T08:08:02;12.07;;;6.95;;
24357;SDS011;13668;52.154;5.580;2023-08-30T08:10:31;10.05;;;5.88;;
24357;SDS011;13668;52.154;5.580;2023-08-30T08:12:58;16.08;;;6.97;;
24357;SDS011;13668;52.154;5.580;2023-08-30T08:15:24;11.63;;;6.55;;
24357;SDS011;13668;52.154;5.580;2023-08-30T08:17:50;11.60;;;5.95;;
24357;SDS011;13668;52.154;5.580;2023-08-30T08:20:16;8.65;;;5.68;;
24357;SDS011;13668;52.154;5.580;2023-08-30T08:22:42;10.55;;;6.13;;
24357;SDS011;13668;52.154;5.580;2023-08-30T08:25:08;7.97;;;5.22;;
24357;SDS011;13668;52.154;5.580;2023-08-30T08:27:37;8.23;;;4.88;;
24357;SDS011;13668;52.154;5.580;2023-08-30T08:30:03;6.82;;;4.93;;
24357;SDS011;13668;52.154;5.580;2023-08-30T08:32:30;7.55;;;6.00;;
24357;SDS011;13668;52.154;5.580;2023-08-30T08:34:56;8.02;;;5.63;;
24357;SDS011;13668;52.154;5.580;2023-08-30T08:37:22;7.03;;;4.75;;
24357;SDS011;13668;52.154;5.580;2023-08-30T08:39:48;7.38;;;5.03;;
24357;SDS011;13668;52.154;5.580;2023-08-30T08:42:16;6.60;;;4.68;;
24357;SDS011;13668;52.154;5.580;2023-08-30T08:44:42;6.63;;;4.20;;
24357;SDS011;13668;52.154;5.580;2023-08-30T08:47:09;5.50;;;4.30;;
24357;SDS011;13668;52.154;5.580;2023-08-30T08:49:35;7.35;;;4.93;;
24357;SDS011;13668;52.154;5.580;2023-08-30T08:52:01;11.88;;;5.78;;
24357;SDS011;13668;52.154;5.580;2023-08-30T08:54:28;9.32;;;5.85;;
24357;SDS011;13668;52.154;5.580;2023-08-30T08:56:54;7.00;;;4.53;;
24357;SDS011;13668;52.154;5.580;2023-08-30T08:59:21;6.30;;;4.88;;
24357;SDS011;13668;52.154;5.580;2023-08-30T09:01:47;6.72;;;4.55;;
24357;SDS011;13668;52.154;5.580;2023-08-30T09:04:13;7.30;;;5.10;;
24357;SDS011;13668;52.154;5.580;2023-08-30T09:06:39;7.13;;;4.80;;
24357;SDS011;13668;52.154;5.580;2023-08-30T09:09:06;7.35;;;5.13;;
24357;SDS011;13668;52.154;5.580;2023-08-30T09:11:33;6.22;;;4.32;;
24357;SDS011;13668;52.154;5.580;2023-08-30T09:13:59;7.78;;;4.20;;
24357;SDS011;13668;52.154;5.580;2023-08-30T09:16:25;5.38;;;3.92;;
24357;SDS011;13668;52.154;5.580;2023-08-30T09:18:58;11.40;;;4.38;;
24357;SDS011;13668;52.154;5.580;2023-08-30T09:21:24;6.80;;;4.80;;
24357;SDS011;13668;52.154;5.580;2023-08-30T09:23:57;6.65;;;4.10;;
24357;SDS011;13668;52.154;5.580;2023-08-30T09:26:23;5.75;;;4.53;;
24357;SDS011;13668;52.154;5.580;2023-08-30T09:28:49;6.97;;;5.10;;
24357;SDS011;13668;52.154;5.580;2023-08-30T09:31:18;5.95;;;5.03;;
24357;SDS011;13668;52.154;5.580;2023-08-30T09:33:45;7.13;;;4.72;;
24357;SDS011;13668;52.154;5.580;2023-08-30T09:36:14;7.40;;;5.10;;
24357;SDS011;13668;52.154;5.580;2023-08-30T09:38:40;7.97;;;4.65;;
24357;SDS011;13668;52.154;5.580;2023-08-30T09:41:06;6.18;;;4.70;;
24357;SDS011;13668;52.154;5.580;2023-08-30T09:43:33;8.07;;;4.70;;
24357;SDS011;13668;52.154;5.580;2023-08-30T09:46:04;5.85;;;4.53;;
24357;SDS011;13668;52.154;5.580;2023-08-30T09:48:31;10.23;;;5.38;;
24357;SDS011;13668;52.154;5.580;2023-08-30T09:50:58;5.90;;;4.50;;
24357;SDS011;13668;52.154;5.580;2023-08-30T09:53:25;9.40;;;5.07;;
24357;SDS011;13668;52.154;5.580;2023-08-30T09:55:53;10.45;;;5.55;;
24357;SDS011;13668;52.154;5.580;2023-08-30T09:58:20;8.23;;;4.85;;
24357;SDS011;13668;52.154;5.580;2023-08-30T10:00:48;7.25;;;4.85;;
24357;SDS011;13668;52.154;5.580;2023-08-30T10:03:14;8.57;;;5.43;;
24357;SDS011;13668;52.154;5.580;2023-08-30T10:05:44;8.45;;;5.97;;
24357;SDS011;13668;52.154;5.580;2023-08-30T10:08:11;8.65;;;5.57;;
24357;SDS011;13668;52.154;5.580;2023-08-30T10:10:38;5.57;;;4.65;;
24357;SDS011;13668;52.154;5.580;2023-08-30T10:13:05;8.57;;;5.13;;
24357;SDS011;13668;52.154;5.580;2023-08-30T10:15:33;7.97;;;5.32;;
24357;SDS011;13668;52.154;5.580;2023-08-30T10:17:59;9.32;;;6.07;;
24357;SDS011;13668;52.154;5.580;2023-08-30T10:20:27;8.30;;;5.20;;
24357;SDS011;13668;52.154;5.580;2023-08-30T10:22:54;6.75;;;4.95;;
24357;SDS011;13668;52.154;5.580;2023-08-30T10:25:27;7.97;;;5.68;;
24357;SDS011;13668;52.154;5.580;2023-08-30T10:27:55;6.38;;;5.00;;
24357;SDS011;13668;52.154;5.580;2023-08-30T10:30:21;10.57;;;5.32;;
24357;SDS011;13668;52.154;5.580;2023-08-30T10:32:48;7.68;;;5.88;;
24357;SDS011;13668;52.154;5.580;2023-08-30T10:35:15;7.78;;;5.45;;
24357;SDS011;13668;52.154;5.580;2023-08-30T10:37:41;9.02;;;5.50;;
24357;SDS011;13668;52.154;5.580;2023-08-30T10:40:07;9.65;;;7.10;;
24357;SDS011;13668;52.154;5.580;2023-08-30T10:42:33;8.38;;;5.20;;
24357;SDS011;13668;52.154;5.580;2023-08-30T10:45:00;8.82;;;6.43;;
24357;SDS011;13668;52.154;5.580;2023-08-30T10:47:28;10.77;;;6.45;;
24357;SDS011;13668;52.154;5.580;2023-08-30T10:49:55;11.23;;;6.75;;
24357;SDS011;13668;52.154;5.580;2023-08-30T10:52:21;10.93;;;7.13;;
24357;SDS011;13668;52.154;5.580;2023-08-30T10:54:48;11.25;;;7.85;;
24357;SDS011;13668;52.154;5.580;2023-08-30T10:57:15;9.52;;;7.00;;
24357;SDS011;13668;52.154;5.580;2023-08-30T11:00:03;8.45;;;7.22;;
24357;SDS011;13668;52.154;5.580;2023-08-30T11:02:30;8.15;;;6.47;;
24357;SDS011;13668;52.154;5.580;2023-08-30T11:05:01;7.50;;;5.45;;
24357;SDS011;13668;52.154;5.580;2023-08-30T11:07:28;6.80;;;5.85;;
24357;SDS011;13668;52.154;5.580;2023-08-30T11:09:54;4.82;;;4.32;;
24357;SDS011;13668;52.154;5.580;2023-08-30T11:12:20;5.90;;;4.38;;
24357;SDS011;13668;52.154;5.580;2023-08-30T11:14:47;4.90;;;4.40;;
24357;SDS011;13668;52.154;5.580;2023-08-30T11:17:15;5.90;;;4.07;;
24357;SDS011;13668;52.154;5.580;2023-08-30T11:19:42;4.60;;;3.70;;
24357;SDS011;13668;52.154;5.580;2023-08-30T11:22:08;4.85;;;3.38;;
24357;SDS011;13668;52.154;5.580;2023-08-30T11:24:34;3.33;;;2.95;;
24357;SDS011;13668;52.154;5.580;2023-08-30T11:27:00;3.63;;;3.25;;
24357;SDS011;13668;52.154;5.580;2023-08-30T11:29:27;3.22;;;2.83;;
24357;SDS011;13668;52.154;5.580;2023-08-30T11:31:53;3.50;;;2.33;;
24357;SDS011;13668;52.154;5.580;2023-08-30T11:34:22;2.08;;;1.83;;
24357;SDS011;13668;52.154;5.580;2023-08-30T11:36:48;4.03;;;1.77;;
24357;SDS011;13668;52.154;5.580;2023-08-30T11:39:15;2.53;;;1.40;;
24357;SDS011;13668;52.154;5.580;2023-08-30T11:41:41;3.03;;;1.70;;
24357;SDS011;13668;52.154;5.580;2023-08-30T11:44:08;2.78;;;1.85;;
24357;SDS011;13668;52.154;5.580;2023-08-30T11:46:34;6.35;;;2.40;;
24357;SDS011;13668;52.154;5.580;2023-08-30T11:49:00;2.75;;;1.88;;
24357;SDS011;13668;52.154;5.580;2023-08-30T11:51:27;3.92;;;1.85;;
24357;SDS011;13668;52.154;5.580;2023-08-30T11:53:54;2.70;;;2.10;;
24357;SDS011;13668;52.154;5.580;2023-08-30T11:56:20;2.63;;;1.90;;
24357;SDS011;13668;52.154;5.580;2023-08-30T11:58:46;3.60;;;2.03;;
24357;SDS011;13668;52.154;5.580;2023-08-30T12:01:12;1.58;;;1.42;;
24357;SDS011;13668;52.154;5.580;2023-08-30T12:03:38;3.83;;;1.60;;
24357;SDS011;13668;52.154;5.580;2023-08-30T12:06:13;2.85;;;1.45;;
24357;SDS011;13668;52.154;5.580;2023-08-30T12:08:40;4.55;;;1.83;;
24357;SDS011;13668;52.154;5.580;2023-08-30T12:11:06;8.10;;;2.00;;
24357;SDS011;13668;52.154;5.580;2023-08-30T12:13:42;2.47;;;1.63;;
24357;SDS011;13668;52.154;5.580;2023-08-30T12:16:08;2.55;;;1.52;;
24357;SDS011;13668;52.154;5.580;2023-08-30T12:18:34;2.30;;;1.77;;
24357;SDS011;13668;52.154;5.580;2023-08-30T12:21:01;3.78;;;2.35;;
24357;SDS011;13668;52.154;5.580;2023-08-30T12:23:31;3.13;;;1.25;;
24357;SDS011;13668;52.154;5.580;2023-08-30T12:26:04;3.28;;;1.45;;
24357;SDS011;13668;52.154;5.580;2023-08-30T12:28:34;7.93;;;1.60;;
24357;SDS011;13668;52.154;5.580;2023-08-30T12:31:01;2.95;;;1.75;;
24357;SDS011;13668;52.154;5.580;2023-08-30T12:33:28;8.10;;;1.50;;
24357;SDS011;13668;52.154;5.580;2023-08-30T12:35:55;2.78;;;1.67;;
24357;SDS011;13668;52.154;5.580;2023-08-30T12:38:21;2.95;;;1.33;;
24357;SDS011;13668;52.154;5.580;2023-08-30T12:40:47;1.33;;;1.15;;
24357;SDS011;13668;52.154;5.580;2023-08-30T12:43:14;3.78;;;1.50;;
24357;SDS011;13668;52.154;5.580;2023-08-30T12:45:40;3.05;;;1.10;;
24357;SDS011;13668;52.154;5.580;2023-08-30T12:48:07;1.23;;;0.93;;
24357;SDS011;13668;52.154;5.580;2023-08-30T12:50:34;4.00;;;1.30;;
24357;SDS011;13668;52.154;5.580;2023-08-30T12:53:00;4.38;;;1.83;;
24357;SDS011;13668;52.154;5.580;2023-08-30T12:55:26;5.03;;;1.30;;
24357;SDS011;13668;52.154;5.580;2023-08-30T12:57:52;2.08;;;1.80;;
24357;SDS011;13668;52.154;5.580;2023-08-30T13:00:18;1.77;;;0.80;;
24357;SDS011;13668;52.154;5.580;2023-08-30T13:02:44;4.07;;;1.25;;
24357;SDS011;13668;52.154;5.580;2023-08-30T13:05:10;2.17;;;0.88;;
24357;SDS011;13668;52.154;5.580;2023-08-30T13:07:37;1.92;;;0.57;;
24357;SDS011;13668;52.154;5.580;2023-08-30T13:10:04;2.30;;;0.68;;
24357;SDS011;13668;52.154;5.580;2023-08-30T13:12:30;1.63;;;0.98;;
24357;SDS011;13668;52.154;5.580;2023-08-30T13:14:56;2.10;;;0.95;;
24357;SDS011;13668;52.154;5.580;2023-08-30T13:17:22;4.65;;;1.27;;
24357;SDS011;13668;52.154;5.580;2023-08-30T13:19:48;4.03;;;1.35;;
24357;SDS011;13668;52.154;5.580;2023-08-30T13:22:14;2.80;;;0.73;;
24357;SDS011;13668;52.154;5.580;2023-08-30T13:24:40;2.63;;;1.17;;
24357;SDS011;13668;52.154;5.580;2023-08-30T13:27:06;4.85;;;1.00;;
24357;SDS011;13668;52.154;5.580;2023-08-30T13:29:32;1.77;;;1.30;;
24357;SDS011;13668;52.154;5.580;2023-08-30T13:31:58;2.28;;;1.15;;
24357;SDS011;13668;52.154;5.580;2023-08-30T13:34:24;1.92;;;0.70;;
24357;SDS011;13668;52.154;5.580;2023-08-30T13:36:50;4.93;;;1.25;;
24357;SDS011;13668;52.154;5.580;2023-08-30T13:39:16;5.20;;;0.98;;
24357;SDS011;13668;52.154;5.580;2023-08-30T13:41:47;3.95;;;1.02;;
24357;SDS011;13668;52.154;5.580;2023-08-30T13:44:14;1.05;;;0.77;;
24357;SDS011;13668;52.154;5.580;2023-08-30T13:46:40;4.53;;;1.13;;
24357;SDS011;13668;52.154;5.580;2023-08-30T13:49:07;2.30;;;0.70;;
24357;SDS011;13668;52.154;5.580;2023-08-30T13:51:33;2.28;;;0.70;;
24357;SDS011;13668;52.154;5.580;2023-08-30T13:53:59;1.67;;;0.65;;
24357;SDS011;13668;52.154;5.580;2023-08-30T13:56:25;4.85;;;0.95;;
24357;SDS011;13668;52.154;5.580;2023-08-30T13:58:51;1.45;;;0.80;;
24357;SDS011;13668;52.154;5.580;2023-08-30T14:01:17;2.45;;;0.75;;
24357;SDS011;13668;52.154;5.580;2023-08-30T14:03:43;2.67;;;0.80;;
24357;SDS011;13668;52.154;5.580;2023-08-30T14:06:09;2.03;;;1.23;;
24357;SDS011;13668;52.154;5.580;2023-08-30T14:08:35;2.75;;;0.88;;
24357;SDS011;13668;52.154;5.580;2023-08-30T14:11:01;4.35;;;1.05;;
24357;SDS011;13668;52.154;5.580;2023-08-30T14:13:28;2.75;;;1.27;;
24357;SDS011;13668;52.154;5.580;2023-08-30T14:16:01;2.08;;;0.75;;
24357;SDS011;13668;52.154;5.580;2023-08-30T14:18:28;1.90;;;1.00;;
24357;SDS011;13668;52.154;5.580;2023-08-30T14:20:57;1.48;;;1.05;;
24357;SDS011;13668;52.154;5.580;2023-08-30T14:23:24;2.78;;;1.38;;
24357;SDS011;13668;52.154;5.580;2023-08-30T14:25:59;1.30;;;0.98;;
24357;SDS011;13668;52.154;5.580;2023-08-30T14:28:26;2.80;;;1.08;;
24357;SDS011;13668;52.154;5.580;2023-08-30T14:30:52;1.67;;;0.80;;
24357;SDS011;13668;52.154;5.580;2023-08-30T14:33:19;3.88;;;1.20;;
24357;SDS011;13668;52.154;5.580;2023-08-30T14:35:45;2.35;;;0.65;;
24357;SDS011;13668;52.154;5.580;2023-08-30T14:38:11;3.03;;;0.60;;
24357;SDS011;13668;52.154;5.580;2023-08-30T14:40:37;2.38;;;0.82;;
24357;SDS011;13668;52.154;5.580;2023-08-30T14:43:03;0.95;;;0.47;;
24357;SDS011;13668;52.154;5.580;2023-08-30T14:45:30;3.75;;;0.75;;